createdAt,value
2023-02-22T00:01:53.238Z,38.54
2023-02-22T00:04:25.044Z,39.17
2023-02-22T00:07:02.072Z,38.63
2023-02-22T00:09:34.753Z,39.01
2023-02-22T00:12:05.346Z,38.79
2023-02-22T00:14:35.447Z,38.75
2023-02-22T00:17:05.972Z,38.64
2023-02-22T00:19:36.306Z,38.73
2023-02-22T00:22:07.445Z,38.87
2023-02-22T00:24:39.390Z,38.88
2023-02-22T00:27:10.619Z,38.80
2023-02-22T00:29:41.515Z,39.08
2023-02-22T00:32:12.132Z,38.66
2023-02-22T00:34:44.125Z,39.09
2023-02-22T00:37:16.339Z,39.33
2023-02-22T00:39:51.086Z,38.99
2023-02-22T00:42:22.555Z,38.93
2023-02-22T00:44:53.178Z,39.05
2023-02-22T00:47:23.742Z,38.75
2023-02-22T00:49:54.387Z,39.39
2023-02-22T00:52:25.519Z,39.47
2023-02-22T00:54:58.287Z,39.04
2023-02-22T00:57:28.439Z,38.85
2023-02-22T00:59:59.228Z,38.99
2023-02-22T01:02:29.866Z,39.38
2023-02-22T01:05:00.458Z,39.20
2023-02-22T01:07:30.572Z,39.13
2023-02-22T01:10:02.813Z,39.11
2023-02-22T01:12:33.476Z,39.50
2023-02-22T01:15:04.988Z,39.45
2023-02-22T01:17:35.737Z,39.49
2023-02-22T01:20:13.006Z,39.00
2023-02-22T01:22:43.526Z,39.26
2023-02-22T01:25:21.678Z,39.60
2023-02-22T01:27:53.886Z,39.65
2023-02-22T01:30:26.735Z,39.63
2023-02-22T01:33:00.134Z,39.09
2023-02-22T01:35:34.144Z,39.40
2023-02-22T01:38:04.704Z,39.41
2023-02-22T01:40:40.596Z,39.66
2023-02-22T01:43:27.761Z,39.67
2023-02-22T01:46:03.822Z,39.44
2023-02-22T01:48:45.258Z,39.51
2023-02-22T01:51:20.489Z,39.70
2023-02-22T01:53:56.560Z,39.57
2023-02-22T01:56:32.836Z,39.67
2023-02-22T01:59:09.968Z,39.56
2023-02-22T02:01:45.077Z,39.53
2023-02-22T02:04:21.825Z,39.30
2023-02-22T02:06:53.423Z,39.61
2023-02-22T02:09:35.012Z,39.59
2023-02-22T02:12:11.503Z,39.58
2023-02-22T02:14:44.503Z,39.21
2023-02-22T02:17:19.891Z,39.38
2023-02-22T02:20:12.072Z,39.63
2023-02-22T02:22:54.382Z,39.75
2023-02-22T02:26:15.423Z,39.35
2023-02-22T02:29:41.348Z,39.67
2023-02-22T02:32:39.228Z,39.37
2023-02-22T02:35:22.587Z,39.52
2023-02-22T02:38:04.684Z,39.48
2023-02-22T02:40:43.859Z,39.42
2023-02-22T02:43:26.928Z,39.25
2023-02-22T02:46:07.220Z,39.80
2023-02-22T02:48:46.130Z,39.83
2023-02-22T02:51:18.900Z,39.74
2023-02-22T02:53:54.081Z,39.35
2023-02-22T02:56:24.821Z,39.90
2023-02-22T02:58:56.178Z,39.78
2023-02-22T03:01:53.235Z,39.71
2023-02-22T03:07:28.876Z,39.48
2023-02-22T03:10:35.181Z,39.82
2023-02-22T03:13:16.747Z,39.44
2023-02-22T03:16:04.299Z,39.56
2023-02-22T03:18:52.221Z,39.30
2023-02-22T03:21:34.231Z,39.36
2023-02-22T03:24:15.251Z,39.91
2023-02-22T03:26:53.039Z,39.77
2023-02-22T03:29:28.794Z,39.36
2023-02-22T03:32:02.460Z,39.46
2023-02-22T03:34:41.329Z,39.48
2023-02-22T03:37:20.464Z,39.57
2023-02-22T03:39:55.936Z,39.42
2023-02-22T03:42:34.455Z,39.29
2023-02-22T03:45:10.589Z,39.64
2023-02-22T03:47:46.787Z,39.79
2023-02-22T03:50:23.369Z,39.66
2023-02-22T03:52:56.509Z,39.45
2023-02-22T03:55:29.428Z,39.44
2023-02-22T03:58:05.195Z,39.54
2023-02-22T04:00:50.812Z,39.51
2023-02-22T04:03:25.843Z,39.38
2023-02-22T04:05:56.048Z,39.33
2023-02-22T04:08:28.158Z,39.93
2023-02-22T04:10:59.070Z,39.87
2023-02-22T04:13:30.467Z,39.85
2023-02-22T04:16:07.236Z,39.72
2023-02-22T04:18:37.731Z,39.90
2023-02-22T04:21:09.652Z,39.80
2023-02-22T04:23:43.915Z,39.48
2023-02-22T04:26:14.921Z,39.43
2023-02-22T04:28:44.850Z,39.49
2023-02-22T04:31:15.572Z,39.99
2023-02-22T04:33:46.902Z,39.92
2023-02-22T04:36:17.779Z,40.00
2023-02-22T04:38:50.990Z,39.89
2023-02-22T04:41:25.040Z,39.92
2023-02-22T04:43:59.425Z,39.99
2023-02-22T04:46:30.330Z,40.10
2023-02-22T04:49:00.767Z,39.64
2023-02-22T04:51:31.325Z,39.67
2023-02-22T04:54:03.868Z,40.18
2023-02-22T04:59:18.121Z,40.33
2023-02-22T05:02:08.272Z,40.46
2023-02-22T05:04:40.189Z,40.02
2023-02-22T05:07:10.697Z,40.55
2023-02-22T05:09:42.373Z,40.59
2023-02-22T05:12:12.768Z,40.48
2023-02-22T05:14:43.759Z,40.83
2023-02-22T05:17:18.414Z,40.47
2023-02-22T05:19:52.469Z,41.01
2023-02-22T05:22:22.912Z,40.63
2023-02-22T05:25:08.515Z,40.91
2023-02-22T05:27:38.741Z,41.00
2023-02-22T05:30:10.550Z,41.19
2023-02-22T05:32:41.141Z,40.72
2023-02-22T05:35:11.850Z,40.91
2023-02-22T05:37:43.112Z,41.23
2023-02-22T05:40:18.591Z,41.37
2023-02-22T05:42:49.104Z,41.06
2023-02-22T05:48:07.755Z,41.14
2023-02-22T05:50:38.620Z,41.18
2023-02-22T05:53:08.990Z,41.24
2023-02-22T05:55:40.819Z,41.17
2023-02-22T05:58:11.361Z,41.21
2023-02-22T06:00:41.978Z,41.16
2023-02-22T06:03:14.202Z,41.06
2023-02-22T06:05:45.486Z,41.34
2023-02-22T06:08:24.633Z,40.90
2023-02-22T06:10:57.523Z,40.64
2023-02-22T06:13:27.922Z,40.84
2023-02-22T06:15:59.535Z,40.99
2023-02-22T06:18:31.528Z,40.95
2023-02-22T06:21:03.159Z,40.67
2023-02-22T06:23:33.884Z,40.42
2023-02-22T06:26:10.068Z,40.24
2023-02-22T06:28:40.143Z,40.25
2023-02-22T06:31:10.719Z,40.49
2023-02-22T06:33:54.156Z,40.19
2023-02-22T06:36:24.605Z,40.35
2023-02-22T06:38:55.113Z,40.26
2023-02-22T06:41:26.468Z,40.05
2023-02-22T06:43:56.993Z,40.24
2023-02-22T06:46:27.540Z,39.88
2023-02-22T06:48:59.994Z,40.11
2023-02-22T06:51:31.544Z,39.88
2023-02-22T06:54:15.002Z,39.77
2023-02-22T06:56:48.126Z,39.49
2023-02-22T06:59:18.723Z,39.89
2023-02-22T07:01:48.817Z,39.50
2023-02-22T07:04:19.259Z,39.42
2023-02-22T07:06:50.509Z,39.42
2023-02-22T07:09:22.105Z,39.24
2023-02-22T07:11:54.582Z,39.20
2023-02-22T07:14:24.425Z,39.06
2023-02-22T07:16:55.105Z,39.14
2023-02-22T07:19:25.614Z,38.98
2023-02-22T07:22:11.452Z,38.85
2023-02-22T07:24:41.777Z,38.80
2023-02-22T07:27:14.402Z,38.74
2023-02-22T07:29:47.178Z,38.66
2023-02-22T07:32:17.957Z,38.74
2023-02-22T07:34:48.521Z,38.59
2023-02-22T07:37:18.500Z,38.64
2023-02-22T07:39:49.753Z,38.50
2023-02-22T07:45:06.588Z,38.16
2023-02-22T07:47:37.131Z,38.17
2023-02-22T07:50:08.333Z,38.07
2023-02-22T07:52:40.942Z,38.02
2023-02-22T07:55:14.115Z,37.92
2023-02-22T07:57:47.816Z,37.90
2023-02-22T08:00:24.598Z,37.72
2023-02-22T08:02:57.334Z,37.84
2023-02-22T08:05:30.601Z,37.50
2023-02-22T08:08:01.490Z,37.48
2023-02-22T08:10:33.505Z,37.47
2023-02-22T08:13:07.595Z,37.04
2023-02-22T08:15:41.121Z,36.86
2023-02-22T08:18:15.005Z,37.22
2023-02-22T08:20:50.830Z,36.78
2023-02-22T08:23:32.210Z,36.83
2023-02-22T08:26:09.568Z,36.94
2023-02-22T08:28:55.098Z,36.77
2023-02-22T08:31:25.882Z,36.59
2023-02-22T08:33:57.607Z,36.53
2023-02-22T08:36:29.852Z,36.17
2023-02-22T08:39:00.678Z,36.18
2023-02-22T08:41:31.069Z,36.19
2023-02-22T08:44:03.395Z,35.96
2023-02-22T08:46:33.912Z,35.90
2023-02-22T08:49:05.061Z,36.06
2023-02-22T08:51:40.984Z,35.94
2023-02-22T08:54:11.809Z,35.89
2023-02-22T08:59:27.728Z,35.81
2023-02-22T09:02:00.585Z,35.50
2023-02-22T09:04:31.107Z,35.42
2023-02-22T09:07:01.683Z,35.39
2023-02-22T09:09:45.198Z,35.15
2023-02-22T09:12:19.481Z,34.86
2023-02-22T09:14:51.120Z,34.99
2023-02-22T09:17:21.707Z,34.80
2023-02-22T09:19:51.801Z,34.81
2023-02-22T09:22:22.284Z,34.71
2023-02-22T09:24:58.412Z,34.53
2023-02-22T09:27:30.331Z,34.45
2023-02-22T09:30:03.896Z,34.45
2023-02-22T09:32:34.543Z,34.25
2023-02-22T09:35:05.315Z,33.98
2023-02-22T09:37:35.977Z,34.06
2023-02-22T09:40:10.343Z,34.06
2023-02-22T09:42:51.453Z,33.84
2023-02-22T09:45:37.725Z,34.11
2023-02-22T09:48:21.821Z,33.83
2023-02-22T09:51:00.545Z,34.13
2023-02-22T09:53:52.743Z,33.83
2023-02-22T09:56:25.251Z,34.11
2023-02-22T09:59:01.397Z,34.04
2023-02-22T10:01:39.575Z,33.91
2023-02-22T10:04:22.507Z,33.87
2023-02-22T10:07:08.456Z,33.53
2023-02-22T10:12:36.487Z,33.44
2023-02-22T10:15:51.943Z,33.80
2023-02-22T10:19:17.661Z,33.79
2023-02-22T10:22:20.475Z,33.55
2023-02-22T10:25:05.230Z,33.68
2023-02-22T10:27:43.323Z,33.73
2023-02-22T10:30:25.765Z,33.17
2023-02-22T10:33:07.851Z,33.39
2023-02-22T10:35:44.818Z,33.33
2023-02-22T10:38:23.981Z,33.54
2023-02-22T10:41:00.549Z,33.63
2023-02-22T10:43:31.740Z,33.44
2023-02-22T10:46:07.697Z,33.37
2023-02-22T10:48:42.743Z,33.43
2023-02-22T10:51:15.514Z,33.59
2023-02-22T10:53:47.113Z,33.13
2023-02-22T10:56:22.395Z,33.46
2023-02-22T10:59:00.235Z,33.66
2023-02-22T11:01:41.150Z,33.65
2023-02-22T11:04:20.887Z,33.64
2023-02-22T11:07:11.274Z,33.62
2023-02-22T11:09:55.176Z,33.58
2023-02-22T11:12:33.569Z,33.51
2023-02-22T11:15:31.794Z,33.70
2023-02-22T11:18:02.349Z,33.85
2023-02-22T11:20:39.961Z,33.75
2023-02-22T11:23:12.903Z,33.49
2023-02-22T11:25:45.955Z,33.68
2023-02-22T11:28:43.225Z,33.56
2023-02-22T11:31:20.751Z,33.64
2023-02-22T11:36:47.280Z,33.58
2023-02-22T11:39:29.991Z,33.65
2023-02-22T11:42:00.881Z,34.06
2023-02-22T11:44:33.691Z,33.81
2023-02-22T11:47:07.467Z,33.85
2023-02-22T11:52:35.310Z,33.89
2023-02-22T11:55:32.935Z,33.81
2023-02-22T11:58:48.157Z,33.88
2023-02-22T12:01:34.120Z,34.17
2023-02-22T12:04:52.338Z,34.04
2023-02-22T12:07:45.017Z,33.86
2023-02-22T12:10:44.864Z,34.25
2023-02-22T12:14:06.035Z,34.18
2023-02-22T12:16:55.128Z,34.10
2023-02-22T12:19:36.638Z,34.42
2023-02-22T12:22:13.103Z,34.14
2023-02-22T12:24:57.953Z,33.96
2023-02-22T12:27:45.091Z,34.15
2023-02-22T12:30:24.042Z,34.30
2023-02-22T12:32:59.537Z,34.27
2023-02-22T12:35:36.113Z,34.37
2023-02-22T12:38:15.291Z,34.21
2023-02-22T12:40:57.652Z,34.19
2023-02-22T12:43:36.739Z,34.48
2023-02-22T12:46:13.917Z,34.33
2023-02-22T12:48:54.909Z,34.47
2023-02-22T12:51:41.570Z,34.34
2023-02-22T12:54:23.697Z,34.66
2023-02-22T12:57:01.878Z,34.43
2023-02-22T12:59:41.531Z,34.26
2023-02-22T13:02:23.495Z,34.35
2023-02-22T13:04:54.161Z,34.51
2023-02-22T13:07:48.005Z,34.37
2023-02-22T13:10:46.403Z,34.47
2023-02-22T13:13:26.820Z,34.57
2023-02-22T13:16:10.475Z,34.53
2023-02-22T13:18:51.786Z,34.66
2023-02-22T13:21:34.422Z,34.29
2023-02-22T13:24:17.349Z,34.58
2023-02-22T13:26:56.822Z,34.52
2023-02-22T13:29:34.649Z,34.85
2023-02-22T13:32:52.816Z,34.90
2023-02-22T13:35:58.553Z,34.81
2023-02-22T13:39:16.360Z,34.76
2023-02-22T13:42:10.629Z,34.80
2023-02-22T13:45:31.363Z,34.80
2023-02-22T13:48:30.689Z,34.71
2023-02-22T13:51:18.176Z,34.91
2023-02-22T13:53:59.778Z,34.89
2023-02-22T13:56:32.137Z,35.00
2023-02-22T13:59:06.245Z,35.10
2023-02-22T14:01:49.377Z,35.01
2023-02-22T14:04:47.323Z,35.06
2023-02-22T14:07:57.322Z,35.33
2023-02-22T14:10:52.577Z,35.24
2023-02-22T14:13:27.228Z,35.02
2023-02-22T14:16:29.773Z,35.11
2023-02-22T14:19:18.714Z,35.31
2023-02-22T14:22:04.319Z,35.35
2023-02-22T14:24:48.138Z,35.39
2023-02-22T14:27:20.413Z,35.39
2023-02-22T14:30:00.826Z,35.56
2023-02-22T14:32:36.240Z,35.21
2023-02-22T14:35:26.526Z,35.66
2023-02-22T14:38:05.229Z,35.25
2023-02-22T14:40:40.679Z,35.67
2023-02-22T14:43:20.317Z,35.69
2023-02-22T14:45:56.378Z,35.64
2023-02-22T14:48:39.829Z,35.33
2023-02-22T14:51:22.360Z,35.27
2023-02-22T14:54:05.216Z,35.49
2023-02-22T14:56:48.028Z,35.31
2023-02-22T14:59:24.792Z,35.89
2023-02-22T15:02:11.666Z,36.20
2023-02-22T15:04:44.348Z,36.08
2023-02-22T15:07:36.151Z,35.92
2023-02-22T15:10:23.144Z,35.77
2023-02-22T15:13:11.132Z,35.80
2023-02-22T15:15:48.842Z,35.74
2023-02-22T15:18:30.564Z,35.74
2023-02-22T15:21:08.162Z,36.05
2023-02-22T15:23:50.004Z,36.03
2023-02-22T15:26:29.634Z,36.26
2023-02-22T15:29:02.429Z,36.14
2023-02-22T15:31:36.633Z,36.03
2023-02-22T15:34:24.693Z,36.25
2023-02-22T15:36:58.172Z,36.41
2023-02-22T15:39:33.465Z,36.13
2023-02-22T15:42:19.836Z,36.40
2023-02-22T15:44:54.328Z,36.44
2023-02-22T15:47:29.629Z,35.93
2023-02-22T15:50:24.329Z,36.45
2023-02-22T15:53:00.105Z,36.62
2023-02-22T15:55:35.043Z,36.48
2023-02-22T15:58:29.170Z,36.37
2023-02-22T16:01:05.379Z,36.72
2023-02-22T16:03:45.364Z,36.39
2023-02-22T16:06:30.986Z,36.69
2023-02-22T16:09:09.859Z,36.64
2023-02-22T16:11:44.670Z,36.31
2023-02-22T16:14:46.370Z,36.75
2023-02-22T16:17:32.693Z,36.52
2023-02-22T16:20:05.789Z,36.33
2023-02-22T16:22:38.560Z,36.46
2023-02-22T16:25:27.959Z,36.62
2023-02-22T16:28:06.650Z,36.64
2023-02-22T16:30:41.785Z,36.71
2023-02-22T16:33:17.082Z,36.84
2023-02-22T16:35:52.492Z,36.60
2023-02-22T16:38:24.459Z,36.66
2023-02-22T16:40:58.917Z,36.57
2023-02-22T16:43:33.802Z,36.99
2023-02-22T16:46:07.538Z,36.88
2023-02-22T16:48:39.268Z,36.80
2023-02-22T16:51:22.021Z,37.37
2023-02-22T16:53:55.709Z,36.99
2023-02-22T16:56:33.011Z,37.10
2023-02-22T16:59:09.294Z,36.87
2023-02-22T17:01:42.104Z,37.04
2023-02-22T17:04:21.826Z,36.97
2023-02-22T17:07:05.149Z,36.92
2023-02-22T17:09:36.324Z,37.05
2023-02-22T17:12:07.831Z,36.94
2023-02-22T17:14:41.377Z,37.10
2023-02-22T17:17:19.298Z,37.19
2023-02-22T17:19:49.547Z,37.44
2023-02-22T17:22:24.726Z,37.09
2023-02-22T17:24:54.973Z,37.23
2023-02-22T17:27:25.337Z,37.27
2023-02-22T17:29:56.438Z,37.24
2023-02-22T17:32:29.459Z,37.26
2023-02-22T17:35:06.893Z,37.26
2023-02-22T17:37:37.837Z,37.52
2023-02-22T17:40:09.621Z,37.49
2023-02-22T17:42:40.480Z,37.38
2023-02-22T17:45:14.330Z,37.33
2023-02-22T17:47:47.289Z,37.43
2023-02-22T17:50:18.053Z,37.62
2023-02-22T17:52:48.600Z,37.48
2023-02-22T17:55:19.399Z,37.49
2023-02-22T17:57:57.402Z,37.57
2023-02-22T18:00:35.572Z,37.19
2023-02-22T18:03:14.114Z,37.63
2023-02-22T18:05:46.860Z,37.36
2023-02-22T18:08:17.725Z,37.26
2023-02-22T18:10:53.277Z,37.37
2023-02-22T18:13:25.195Z,37.73
2023-02-22T18:15:57.863Z,37.95
2023-02-22T18:18:30.908Z,37.56
2023-02-22T18:21:01.856Z,37.64
2023-02-22T18:23:34.282Z,37.99
2023-02-22T18:26:12.479Z,37.58
2023-02-22T18:28:43.927Z,37.74
2023-02-22T18:31:17.227Z,37.75
2023-02-22T18:33:52.003Z,37.97
2023-02-22T18:36:26.171Z,37.96
2023-02-22T18:38:58.551Z,37.88
2023-02-22T18:41:30.293Z,37.95
2023-02-22T18:44:01.548Z,38.04
2023-02-22T18:46:32.358Z,38.13
2023-02-22T18:49:08.204Z,38.07
2023-02-22T18:51:40.515Z,38.14
2023-02-22T18:54:10.528Z,38.06
2023-02-22T18:56:41.886Z,37.75
2023-02-22T18:59:15.145Z,38.20
2023-02-22T19:01:49.564Z,38.22
2023-02-22T19:04:22.300Z,38.16
2023-02-22T19:06:52.929Z,38.18
2023-02-22T19:09:23.584Z,38.12
2023-02-22T19:11:55.096Z,38.36
2023-02-22T19:14:25.865Z,38.14
2023-02-22T19:17:01.832Z,38.37
2023-02-22T19:19:34.339Z,38.24
2023-02-22T19:22:05.208Z,37.89
2023-02-22T19:24:35.494Z,38.33
2023-02-22T19:27:06.932Z,38.22
2023-02-22T19:29:40.601Z,38.26
2023-02-22T19:32:13.195Z,38.12
2023-02-22T19:34:46.102Z,38.37
2023-02-22T19:37:19.141Z,38.37
2023-02-22T19:39:49.076Z,38.47
2023-02-22T19:42:19.744Z,38.39
2023-02-22T19:44:52.982Z,38.51
2023-02-22T19:47:24.100Z,38.34
2023-02-22T19:49:59.155Z,38.65
2023-02-22T19:52:31.362Z,38.42
2023-02-22T19:55:02.420Z,38.55
2023-02-22T19:57:33.621Z,38.40
2023-02-22T20:00:11.775Z,38.51
2023-02-22T20:02:44.286Z,38.47
2023-02-22T20:05:18.386Z,38.59
2023-02-22T20:07:48.656Z,38.48
2023-02-22T20:10:19.582Z,38.28
2023-02-22T20:12:50.120Z,38.83
2023-02-22T20:15:22.387Z,38.54
2023-02-22T20:17:53.676Z,38.68
2023-02-22T20:20:28.985Z,38.65
2023-02-22T20:23:00.794Z,38.64
2023-02-22T20:25:31.317Z,38.63
2023-02-22T20:28:02.177Z,38.42
2023-02-22T20:30:34.059Z,38.93
2023-02-22T20:33:05.408Z,38.88
2023-02-22T20:35:39.576Z,38.74
2023-02-22T20:38:12.005Z,38.68
2023-02-22T20:40:44.209Z,38.54
2023-02-22T20:43:14.271Z,38.97
2023-02-22T20:45:44.966Z,38.60
2023-02-22T20:48:15.248Z,38.50
2023-02-22T20:50:47.400Z,38.51
2023-02-22T20:53:18.183Z,38.81
2023-02-22T20:55:52.838Z,38.85
2023-02-22T20:58:23.393Z,38.64
2023-02-22T21:00:55.368Z,39.12
2023-02-22T21:03:26.035Z,38.92
2023-02-22T21:05:58.754Z,38.94
2023-02-22T21:08:33.196Z,38.92
2023-02-22T21:11:04.513Z,38.63
2023-02-22T21:13:35.216Z,38.70
2023-02-22T21:16:06.791Z,38.91
2023-02-22T21:18:37.673Z,39.23
2023-02-22T21:21:12.609Z,38.87
2023-02-22T21:23:44.136Z,38.96
2023-02-22T21:26:19.545Z,38.47
2023-02-22T21:28:51.499Z,38.74
2023-02-22T21:31:24.729Z,38.93
2023-02-22T21:33:58.111Z,38.79
2023-02-22T21:36:32.475Z,38.74
2023-02-22T21:39:08.926Z,39.16
2023-02-22T21:41:41.092Z,38.88
2023-02-22T21:44:11.980Z,39.17
2023-02-22T21:46:43.107Z,38.71
2023-02-22T21:49:14.163Z,39.04
2023-02-22T21:51:47.247Z,38.76
2023-02-22T21:54:17.683Z,39.12
2023-02-22T21:56:48.642Z,38.85
2023-02-22T21:59:23.001Z,39.04
2023-02-22T22:01:56.779Z,39.36
2023-02-22T22:04:31.615Z,39.36
2023-02-22T22:07:04.883Z,38.82
2023-02-22T22:09:42.285Z,39.18
2023-02-22T22:12:14.634Z,39.40
2023-02-22T22:14:46.284Z,39.15
2023-02-22T22:17:16.710Z,38.92
2023-02-22T22:19:49.476Z,39.18
2023-02-22T22:22:23.591Z,38.90
2023-02-22T22:24:55.448Z,39.31
2023-02-22T22:27:26.081Z,39.06
2023-02-22T22:29:57.731Z,39.34
2023-02-22T22:32:27.895Z,39.06
2023-02-22T22:34:59.953Z,39.28
2023-02-22T22:37:35.011Z,39.34
2023-02-22T22:40:07.102Z,39.36
2023-02-22T22:42:37.830Z,39.27
2023-02-22T22:45:12.266Z,39.16
2023-02-22T22:47:46.405Z,39.09
2023-02-22T22:50:19.875Z,39.20
2023-02-22T22:52:53.333Z,39.46
2023-02-22T22:55:25.397Z,39.08
2023-02-22T22:57:57.176Z,39.18
2023-02-22T23:00:32.188Z,39.12
2023-02-22T23:03:02.576Z,39.13
2023-02-22T23:05:33.114Z,39.35
2023-02-22T23:08:11.006Z,39.08
2023-02-22T23:10:43.828Z,39.38
2023-02-22T23:13:16.040Z,39.40
2023-02-22T23:15:49.047Z,39.43
2023-02-22T23:18:20.966Z,39.02
2023-02-22T23:20:55.628Z,39.41
2023-02-22T23:23:30.084Z,38.92
2023-02-22T23:26:11.979Z,39.49
2023-02-22T23:28:52.825Z,39.06
2023-02-22T23:31:23.534Z,39.05
2023-02-22T23:33:56.222Z,39.38
2023-02-22T23:36:27.753Z,39.45
2023-02-22T23:38:59.760Z,39.20
2023-02-22T23:41:30.500Z,39.09
2023-02-22T23:44:00.475Z,39.32
2023-02-22T23:46:33.745Z,39.47
2023-02-22T23:49:05.890Z,39.36
2023-02-22T23:51:39.718Z,39.70
2023-02-22T23:54:15.589Z,39.25
2023-02-22T23:56:50.700Z,39.36
2023-02-22T23:59:21.294Z,39.05
